createdAt,value
2022-09-13T00:01:35.298Z,3.78
2022-09-13T00:04:02.692Z,3.72
2022-09-13T00:06:30.184Z,4.20
2022-09-13T00:08:58.133Z,4.00
2022-09-13T00:11:26.934Z,4.13
2022-09-13T00:13:54.463Z,4.35
2022-09-13T00:16:23.090Z,4.10
2022-09-13T00:18:50.620Z,4.30
2022-09-13T00:21:19.300Z,4.75
2022-09-13T00:23:47.306Z,4.70
2022-09-13T00:26:15.838Z,3.40
2022-09-13T00:28:45.507Z,4.22
2022-09-13T00:31:13.230Z,4.47
2022-09-13T00:33:40.455Z,3.83
2022-09-13T00:36:08.566Z,3.53
2022-09-13T00:38:36.598Z,4.30
2022-09-13T00:41:05.197Z,3.40
2022-09-13T00:43:44.929Z,3.45
2022-09-13T00:46:23.699Z,3.88
2022-09-13T00:48:52.326Z,3.95
2022-09-13T00:51:19.289Z,3.75
2022-09-13T00:53:53.129Z,4.18
2022-09-13T00:56:29.809Z,3.45
2022-09-13T00:59:02.663Z,4.00
2022-09-13T01:01:36.753Z,4.05
2022-09-13T01:04:04.236Z,3.97
2022-09-13T01:06:34.335Z,3.80
2022-09-13T01:09:04.811Z,3.97
2022-09-13T01:12:04.679Z,3.72
2022-09-13T01:14:32.854Z,3.85
2022-09-13T01:16:59.806Z,3.20
2022-09-13T01:19:26.961Z,3.83
2022-09-13T01:22:12.837Z,3.58
2022-09-13T01:25:07.648Z,4.43
2022-09-13T01:27:44.015Z,3.90
2022-09-13T01:30:35.909Z,4.00
2022-09-13T01:33:08.606Z,4.15
2022-09-13T01:36:06.170Z,3.90
2022-09-13T01:38:58.589Z,3.65
2022-09-13T01:41:45.897Z,3.88
2022-09-13T01:44:58.716Z,4.07
2022-09-13T01:47:52.332Z,3.72
2022-09-13T01:50:43.385Z,4.10
2022-09-13T01:53:43.507Z,4.65
2022-09-13T01:56:20.777Z,4.05
2022-09-13T01:58:58.997Z,4.05
2022-09-13T02:01:34.391Z,3.35
2022-09-13T02:04:09.390Z,4.13
2022-09-13T02:07:03.007Z,4.28
2022-09-13T02:09:35.015Z,4.18
2022-09-13T02:12:11.511Z,3.88
2022-09-13T02:14:40.898Z,3.85
2022-09-13T02:17:29.748Z,4.47
2022-09-13T02:19:58.254Z,3.83
2022-09-13T02:22:34.078Z,4.25
2022-09-13T02:25:06.819Z,3.67
2022-09-13T02:27:35.589Z,5.15
2022-09-13T02:30:08.540Z,4.18
2022-09-13T02:32:56.676Z,4.63
2022-09-13T02:35:39.037Z,4.20
2022-09-13T02:38:18.470Z,3.83
2022-09-13T02:40:53.764Z,3.60
2022-09-13T02:43:31.779Z,4.15
2022-09-13T02:46:10.054Z,3.88
2022-09-13T02:49:13.200Z,4.20
2022-09-13T02:51:40.194Z,4.13
2022-09-13T02:54:25.745Z,4.43
2022-09-13T02:57:01.806Z,4.35
2022-09-13T02:59:28.668Z,4.20
2022-09-13T03:02:02.230Z,3.65
2022-09-13T03:04:29.591Z,3.65
2022-09-13T03:06:56.392Z,4.22
2022-09-13T03:09:23.849Z,4.70
2022-09-13T03:12:15.754Z,4.20
2022-09-13T03:14:46.072Z,4.30
2022-09-13T03:17:23.289Z,4.40
2022-09-13T03:20:29.366Z,5.15
2022-09-13T03:22:56.538Z,4.90
2022-09-13T03:25:46.981Z,5.10
2022-09-13T03:28:18.205Z,4.88
2022-09-13T03:30:51.099Z,4.50
2022-09-13T03:33:31.676Z,5.30
2022-09-13T03:36:06.254Z,4.65
2022-09-13T03:38:41.057Z,5.32
2022-09-13T03:41:14.154Z,4.72
2022-09-13T03:43:48.849Z,4.82
2022-09-13T03:46:19.201Z,5.20
2022-09-13T03:48:48.772Z,5.07
2022-09-13T03:51:25.275Z,4.93
2022-09-13T03:54:03.959Z,4.93
2022-09-13T03:56:32.688Z,5.60
2022-09-13T03:59:00.163Z,5.20
2022-09-13T04:01:27.913Z,5.32
2022-09-13T04:03:57.016Z,4.63
2022-09-13T04:06:24.640Z,4.85
2022-09-13T04:08:54.056Z,5.18
2022-09-13T04:11:24.351Z,5.22
2022-09-13T04:13:52.452Z,5.75
2022-09-13T04:16:21.755Z,5.43
2022-09-13T04:18:49.968Z,4.93
2022-09-13T04:21:18.529Z,4.80
2022-09-13T04:23:52.000Z,4.55
2022-09-13T04:26:19.637Z,5.43
2022-09-13T04:28:56.142Z,5.95
2022-09-13T04:31:23.580Z,5.57
2022-09-13T04:33:51.089Z,5.10
2022-09-13T04:36:18.633Z,5.25
2022-09-13T04:38:48.346Z,5.05
2022-09-13T04:41:19.463Z,4.95
2022-09-13T04:43:50.857Z,6.00
2022-09-13T04:46:18.604Z,5.80
2022-09-13T04:48:55.282Z,5.38
2022-09-13T04:51:23.985Z,5.78
2022-09-13T04:53:55.303Z,5.00
2022-09-13T04:56:24.557Z,5.30
2022-09-13T04:58:52.986Z,6.75
2022-09-13T05:01:25.879Z,5.68
2022-09-13T05:03:55.770Z,4.97
2022-09-13T05:06:24.413Z,5.55
2022-09-13T05:08:56.314Z,5.72
2022-09-13T05:11:24.235Z,5.75
2022-09-13T05:13:54.687Z,5.78
2022-09-13T05:16:22.640Z,6.05
2022-09-13T05:18:49.907Z,6.65
2022-09-13T05:21:20.042Z,6.05
2022-09-13T05:23:52.524Z,5.30
2022-09-13T05:26:23.752Z,6.43
2022-09-13T05:28:53.114Z,6.15
2022-09-13T05:31:22.134Z,5.38
2022-09-13T05:33:53.937Z,6.43
2022-09-13T05:36:23.673Z,8.68
2022-09-13T05:39:06.833Z,5.95
2022-09-13T05:41:42.054Z,6.15
2022-09-13T05:44:13.874Z,6.55
2022-09-13T05:46:43.351Z,5.47
2022-09-13T05:49:15.439Z,6.13
2022-09-13T05:51:42.998Z,5.95
2022-09-13T05:54:23.600Z,7.38
2022-09-13T05:56:53.972Z,6.30
2022-09-13T05:59:22.092Z,8.88
2022-09-13T06:01:49.329Z,6.32
2022-09-13T06:04:25.963Z,7.10
2022-09-13T06:06:55.934Z,6.53
2022-09-13T06:09:23.104Z,6.90
2022-09-13T06:11:52.229Z,5.82
2022-09-13T06:14:23.538Z,5.95
2022-09-13T06:16:51.557Z,6.07
2022-09-13T06:19:18.748Z,7.60
2022-09-13T06:21:50.022Z,6.15
2022-09-13T06:24:20.772Z,7.22
2022-09-13T06:26:52.147Z,6.40
2022-09-13T06:29:19.299Z,6.78
2022-09-13T06:31:48.814Z,6.40
2022-09-13T06:34:19.955Z,5.97
2022-09-13T06:36:49.033Z,6.25
2022-09-13T06:39:16.886Z,6.75
2022-09-13T06:41:44.074Z,6.35
2022-09-13T06:44:19.107Z,6.75
2022-09-13T06:46:46.423Z,7.20
2022-09-13T06:49:19.209Z,6.68
2022-09-13T06:51:46.384Z,7.72
2022-09-13T06:54:17.359Z,7.50
2022-09-13T06:56:44.529Z,6.97
2022-09-13T06:59:12.940Z,7.70
2022-09-13T07:01:42.688Z,7.00
2022-09-13T07:04:19.520Z,6.95
2022-09-13T07:06:49.441Z,6.40
2022-09-13T07:09:19.014Z,6.30
2022-09-13T07:11:47.383Z,7.10
2022-09-13T07:14:22.734Z,7.03
2022-09-13T07:16:52.894Z,7.55
2022-09-13T07:19:23.330Z,6.72
2022-09-13T07:21:51.876Z,7.38
2022-09-13T07:24:19.536Z,6.75
2022-09-13T07:26:47.158Z,6.40
2022-09-13T07:29:22.306Z,6.93
2022-09-13T07:31:50.950Z,7.25
2022-09-13T07:34:23.653Z,6.60
2022-09-13T07:36:52.955Z,7.30
2022-09-13T07:39:23.065Z,7.35
2022-09-13T07:41:51.695Z,7.10
2022-09-13T07:44:19.224Z,6.95
2022-09-13T07:46:46.621Z,6.60
2022-09-13T07:49:20.240Z,6.93
2022-09-13T07:51:51.739Z,5.70
2022-09-13T07:54:19.676Z,6.70
2022-09-13T07:56:46.832Z,7.43
2022-09-13T07:59:17.379Z,6.43
2022-09-13T08:01:45.927Z,7.32
2022-09-13T08:04:17.749Z,7.97
2022-09-13T08:06:45.394Z,7.53
2022-09-13T08:09:14.128Z,7.28
2022-09-13T08:11:42.870Z,6.60
2022-09-13T08:14:18.245Z,6.75
2022-09-13T08:16:47.672Z,6.55
2022-09-13T08:19:17.125Z,8.95
2022-09-13T08:21:46.687Z,8.73
2022-09-13T08:24:17.330Z,8.85
2022-09-13T08:26:47.073Z,8.32
2022-09-13T08:29:17.601Z,7.78
2022-09-13T08:31:54.755Z,7.53
2022-09-13T08:34:23.275Z,7.82
2022-09-13T08:36:52.155Z,9.77
2022-09-13T08:39:19.531Z,9.48
2022-09-13T08:41:54.354Z,9.02
2022-09-13T08:44:35.224Z,8.25
2022-09-13T08:47:02.665Z,9.18
2022-09-13T08:49:34.688Z,8.40
2022-09-13T08:52:06.299Z,8.55
2022-09-13T08:54:35.636Z,10.00
2022-09-13T08:57:17.203Z,9.63
2022-09-13T08:59:47.748Z,9.02
2022-09-13T09:02:22.398Z,7.63
2022-09-13T09:05:07.172Z,7.65
2022-09-13T09:07:40.928Z,8.48
2022-09-13T09:10:40.976Z,9.02
2022-09-13T09:13:10.528Z,9.23
2022-09-13T09:15:41.391Z,7.95
2022-09-13T09:18:14.286Z,7.00
2022-09-13T09:20:54.963Z,7.80
2022-09-13T09:23:24.369Z,7.95
2022-09-13T09:25:53.733Z,7.97
2022-09-13T09:28:21.266Z,8.05
2022-09-13T09:30:51.382Z,8.05
2022-09-13T09:33:26.781Z,7.35
2022-09-13T09:35:59.871Z,7.35
2022-09-13T09:38:34.763Z,7.75
2022-09-13T09:41:05.793Z,7.65
2022-09-13T09:43:41.440Z,8.10
2022-09-13T09:46:13.924Z,8.57
2022-09-13T09:48:45.093Z,6.45
2022-09-13T09:51:14.219Z,5.93
2022-09-13T09:53:43.633Z,5.90
2022-09-13T09:56:30.310Z,5.20
2022-09-13T09:58:59.135Z,6.07
2022-09-13T10:01:27.018Z,5.40
2022-09-13T10:04:10.645Z,5.50
2022-09-13T10:06:43.944Z,5.55
2022-09-13T10:09:14.854Z,5.65
2022-09-13T10:11:47.933Z,6.68
2022-09-13T10:14:34.684Z,5.50
2022-09-13T10:17:21.449Z,7.00
2022-09-13T10:19:57.613Z,5.20
2022-09-13T10:22:25.202Z,5.55
2022-09-13T10:25:12.450Z,6.82
2022-09-13T10:27:45.257Z,6.93
2022-09-13T10:30:28.319Z,7.22
2022-09-13T10:32:57.123Z,8.05
2022-09-13T10:35:26.184Z,6.50
2022-09-13T10:37:53.762Z,6.63
2022-09-13T10:40:34.030Z,6.90
2022-09-13T10:43:06.099Z,5.35
2022-09-13T10:45:35.354Z,6.68
2022-09-13T10:48:11.007Z,6.38
2022-09-13T10:51:03.810Z,5.07
2022-09-13T10:53:37.570Z,5.10
2022-09-13T10:56:05.677Z,5.38
2022-09-13T10:58:33.080Z,5.22
2022-09-13T11:01:09.759Z,4.47
2022-09-13T11:03:43.880Z,4.85
2022-09-13T11:06:28.632Z,4.78
2022-09-13T11:09:18.446Z,6.05
2022-09-13T11:12:06.462Z,5.75
2022-09-13T11:14:35.116Z,6.20
2022-09-13T11:17:06.058Z,6.40
2022-09-13T11:20:03.712Z,6.57
2022-09-13T11:22:40.798Z,4.50
2022-09-13T11:25:45.072Z,6.22
2022-09-13T11:28:32.495Z,5.88
2022-09-13T11:31:22.281Z,6.72
2022-09-13T11:34:06.372Z,6.50
2022-09-13T11:36:46.909Z,5.93
2022-09-13T11:39:17.783Z,7.22
2022-09-13T11:42:09.220Z,5.80
2022-09-13T11:44:55.127Z,6.82
2022-09-13T11:48:00.929Z,5.82
2022-09-13T11:50:34.960Z,6.15
2022-09-13T11:53:29.482Z,6.22
2022-09-13T11:56:04.100Z,6.07
2022-09-13T11:58:40.043Z,5.93
2022-09-13T12:01:14.069Z,6.57
2022-09-13T12:04:06.177Z,7.13
2022-09-13T12:06:47.116Z,6.78
2022-09-13T12:09:25.657Z,6.97
2022-09-13T12:12:13.534Z,5.78
2022-09-13T12:14:47.773Z,5.30
2022-09-13T12:17:47.309Z,5.18
2022-09-13T12:20:21.708Z,5.18
2022-09-13T12:22:49.940Z,6.13
2022-09-13T12:25:25.074Z,5.88
2022-09-13T12:28:13.113Z,6.22
2022-09-13T12:33:34.693Z,6.78
2022-09-13T12:36:25.917Z,6.80
2022-09-13T12:39:32.005Z,6.25
2022-09-13T12:42:23.136Z,6.18
2022-09-13T12:45:41.022Z,5.68
2022-09-13T12:48:22.784Z,8.27
2022-09-13T12:51:25.035Z,6.57
2022-09-13T12:54:00.865Z,4.38
2022-09-13T12:56:36.168Z,4.38
2022-09-13T12:59:42.985Z,4.75
2022-09-13T13:02:31.033Z,4.50
2022-09-13T13:05:05.332Z,5.93
2022-09-13T13:07:46.444Z,5.60
2022-09-13T13:10:37.941Z,4.28
2022-09-13T13:13:25.036Z,5.88
2022-09-13T13:15:56.361Z,6.22
2022-09-13T13:18:28.465Z,5.85
2022-09-13T13:20:59.072Z,7.22
2022-09-13T13:23:42.962Z,6.40
2022-09-13T13:26:32.576Z,6.38
2022-09-13T13:29:20.152Z,6.95
2022-09-13T13:32:06.912Z,8.50
2022-09-13T13:34:44.319Z,7.30
2022-09-13T13:37:12.141Z,6.55
2022-09-13T13:39:44.354Z,5.32
2022-09-13T13:42:28.614Z,6.47
2022-09-13T13:44:56.040Z,5.10
2022-09-13T13:47:52.922Z,6.00
2022-09-13T13:50:21.025Z,6.05
2022-09-13T13:52:48.343Z,7.00
2022-09-13T13:55:45.422Z,6.82
2022-09-13T13:58:42.725Z,7.13
2022-09-13T14:01:16.989Z,8.65
2022-09-13T14:04:15.248Z,8.75
2022-09-13T14:06:54.252Z,8.38
2022-09-13T14:09:39.545Z,8.07
2022-09-13T14:12:30.822Z,9.00
2022-09-13T14:15:03.795Z,7.32
2022-09-13T14:18:08.475Z,8.93
2022-09-13T14:20:35.782Z,8.80
2022-09-13T14:23:21.539Z,7.22
2022-09-13T14:26:02.566Z,6.60
2022-09-13T14:28:30.240Z,6.55
2022-09-13T14:30:58.465Z,5.85
2022-09-13T14:33:31.062Z,7.30
2022-09-13T14:36:00.045Z,6.35
2022-09-13T14:38:33.769Z,6.45
2022-09-13T14:41:21.922Z,6.55
2022-09-13T14:43:51.315Z,6.03
2022-09-13T14:46:42.600Z,6.50
2022-09-13T14:49:18.275Z,6.38
2022-09-13T14:51:48.779Z,6.65
2022-09-13T14:54:30.996Z,6.22
2022-09-13T14:57:01.245Z,6.50
2022-09-13T14:59:52.493Z,6.78
2022-09-13T15:03:08.664Z,8.73
2022-09-13T15:05:40.950Z,8.82
2022-09-13T15:08:45.049Z,9.65
2022-09-13T15:11:43.738Z,10.77
2022-09-13T15:14:37.435Z,9.32
2022-09-13T15:17:10.803Z,9.77
2022-09-13T15:19:44.944Z,9.05
2022-09-13T15:22:33.441Z,8.35
2022-09-13T15:25:02.741Z,8.10
2022-09-13T15:27:50.877Z,9.77
2022-09-13T15:30:29.714Z,10.25
2022-09-13T15:33:07.206Z,11.30
2022-09-13T15:35:40.657Z,10.55
2022-09-13T15:38:28.521Z,9.70
2022-09-13T15:41:12.651Z,9.00
2022-09-13T15:43:53.151Z,9.80
2022-09-13T15:46:21.764Z,9.80
2022-09-13T15:48:56.115Z,9.90
2022-09-13T15:51:23.545Z,9.02
2022-09-13T15:53:52.278Z,8.43
2022-09-13T15:56:26.364Z,10.52
2022-09-13T15:58:54.538Z,8.27
2022-09-13T16:01:21.805Z,9.30
2022-09-13T16:03:48.834Z,11.60
2022-09-13T16:06:15.641Z,10.43
2022-09-13T16:08:42.501Z,10.20
2022-09-13T16:11:09.405Z,12.10
2022-09-13T16:13:37.230Z,9.63
2022-09-13T16:16:05.235Z,10.02
2022-09-13T16:18:32.808Z,11.55
2022-09-13T16:20:59.739Z,10.57
2022-09-13T16:23:26.714Z,13.10
2022-09-13T16:25:57.517Z,13.80
2022-09-13T16:28:24.579Z,11.57
2022-09-13T16:30:52.848Z,10.02
2022-09-13T16:33:20.704Z,12.02
2022-09-13T16:35:47.869Z,12.07
2022-09-13T16:38:14.955Z,12.48
2022-09-13T16:40:43.583Z,12.45
2022-09-13T16:43:10.444Z,11.02
2022-09-13T16:45:41.876Z,11.75
2022-09-13T16:48:09.104Z,12.93
2022-09-13T16:50:39.110Z,13.35
2022-09-13T16:53:06.140Z,14.40
2022-09-13T16:55:33.390Z,13.45
2022-09-13T16:58:00.180Z,11.52
2022-09-13T17:00:28.991Z,11.40
2022-09-13T17:02:56.864Z,10.70
2022-09-13T17:05:24.584Z,11.20
2022-09-13T17:07:52.810Z,11.90
2022-09-13T17:10:20.592Z,11.27
2022-09-13T17:12:47.469Z,10.63
2022-09-13T17:15:14.903Z,13.10
2022-09-13T17:17:41.928Z,14.02
2022-09-13T17:20:12.305Z,11.63
2022-09-13T17:22:40.063Z,11.80
2022-09-13T17:25:10.312Z,14.55
2022-09-13T17:27:37.179Z,13.98
2022-09-13T17:30:05.285Z,15.00
2022-09-13T17:32:32.771Z,16.02
2022-09-13T17:34:59.609Z,13.98
2022-09-13T17:37:26.970Z,11.68
2022-09-13T17:39:54.333Z,11.48
2022-09-13T17:42:23.391Z,10.27
2022-09-13T17:44:50.913Z,11.43
2022-09-13T17:47:17.867Z,9.15
2022-09-13T17:49:46.616Z,28.63
2022-09-13T17:52:13.709Z,9.30
2022-09-13T17:54:40.749Z,8.27
2022-09-13T17:57:07.845Z,8.50
2022-09-13T17:59:35.042Z,8.65
2022-09-13T18:02:02.387Z,8.82
2022-09-13T18:04:29.469Z,8.82
2022-09-13T18:06:56.821Z,9.05
2022-09-13T18:09:24.694Z,9.52
2022-09-13T18:11:51.971Z,8.70
2022-09-13T18:14:20.192Z,9.43
2022-09-13T18:16:49.336Z,9.20
2022-09-13T18:19:16.282Z,11.45
2022-09-13T18:21:43.217Z,11.55
2022-09-13T18:24:10.146Z,11.45
2022-09-13T18:26:37.315Z,10.65
2022-09-13T18:29:06.526Z,8.02
2022-09-13T18:31:36.072Z,6.40
2022-09-13T18:34:06.243Z,6.53
2022-09-13T18:36:35.950Z,8.80
2022-09-13T18:39:05.041Z,9.32
2022-09-13T18:41:42.173Z,14.77
2022-09-13T18:44:12.347Z,17.02
2022-09-13T18:46:39.575Z,15.13
2022-09-13T18:49:07.278Z,5.70
2022-09-13T18:51:40.097Z,5.15
2022-09-13T18:54:08.670Z,4.70
2022-09-13T18:56:36.400Z,4.45
2022-09-13T18:59:05.659Z,4.32
2022-09-13T19:01:35.450Z,4.03
2022-09-13T19:04:22.915Z,3.92
2022-09-13T19:06:52.511Z,4.40
2022-09-13T19:09:21.051Z,5.40
2022-09-13T19:11:50.614Z,13.43
2022-09-13T19:14:25.995Z,15.25
2022-09-13T19:16:54.852Z,6.28
2022-09-13T19:19:23.561Z,3.42
2022-09-13T19:21:50.936Z,2.97
2022-09-13T19:24:19.938Z,2.67
2022-09-13T19:26:51.153Z,2.50
2022-09-13T19:29:23.509Z,2.58
2022-09-13T19:31:52.943Z,2.97
2022-09-13T19:34:21.964Z,2.65
2022-09-13T19:36:52.544Z,2.85
2022-09-13T19:39:19.636Z,2.30
2022-09-13T19:41:46.877Z,2.88
2022-09-13T19:44:14.581Z,3.80
2022-09-13T19:46:42.608Z,2.25
2022-09-13T19:49:12.964Z,2.20
2022-09-13T19:51:40.895Z,1.95
2022-09-13T19:54:08.867Z,12.18
2022-09-13T19:56:38.800Z,3.00
2022-09-13T19:59:07.262Z,1.88
2022-09-13T20:01:36.190Z,2.10
2022-09-13T20:04:05.618Z,1.83
2022-09-13T20:06:37.510Z,3.13
2022-09-13T20:09:04.902Z,8.82
2022-09-13T20:11:33.116Z,2.90
2022-09-13T20:14:01.450Z,1.60
2022-09-13T20:16:32.080Z,1.88
2022-09-13T20:18:59.621Z,2.63
2022-09-13T20:21:28.070Z,1.60
2022-09-13T20:23:57.634Z,1.80
2022-09-13T20:26:28.672Z,1.65
2022-09-13T20:28:57.294Z,2.08
2022-09-13T20:31:25.066Z,1.42
2022-09-13T20:33:56.256Z,1.63
2022-09-13T20:36:23.956Z,1.42
2022-09-13T20:38:52.971Z,3.80
2022-09-13T20:41:23.377Z,2.97
2022-09-13T20:43:51.187Z,1.80
2022-09-13T20:46:19.888Z,2.33
2022-09-13T20:48:47.874Z,2.00
2022-09-13T20:51:16.599Z,3.00
2022-09-13T20:53:44.171Z,1.67
2022-09-13T20:56:13.859Z,1.23
2022-09-13T20:58:42.609Z,1.70
2022-09-13T21:01:11.244Z,1.58
2022-09-13T21:03:39.803Z,1.23
2022-09-13T21:06:08.054Z,1.20
2022-09-13T21:08:41.810Z,1.52
2022-09-13T21:11:16.280Z,1.70
2022-09-13T21:13:44.755Z,1.20
2022-09-13T21:16:16.608Z,2.63
2022-09-13T21:18:44.391Z,3.20
2022-09-13T21:21:14.406Z,11.43
2022-09-13T21:23:42.470Z,14.05
2022-09-13T21:26:11.816Z,7.13
2022-09-13T21:28:40.010Z,12.07
2022-09-13T21:31:08.798Z,2.13
2022-09-13T21:33:36.834Z,3.97
2022-09-13T21:36:05.507Z,2.78
2022-09-13T21:38:34.204Z,1.80
2022-09-13T21:41:03.299Z,1.75
2022-09-13T21:43:30.857Z,2.72
2022-09-13T21:46:02.536Z,1.38
2022-09-13T21:48:33.177Z,0.82
2022-09-13T21:51:08.199Z,1.52
2022-09-13T21:53:37.983Z,1.23
2022-09-13T21:56:06.605Z,1.35
2022-09-13T21:58:34.021Z,1.50
2022-09-13T22:01:09.959Z,1.33
2022-09-13T22:03:40.028Z,1.00
2022-09-13T22:06:07.834Z,1.20
2022-09-13T22:08:37.484Z,1.15
2022-09-13T22:11:09.661Z,1.00
2022-09-13T22:13:40.299Z,1.35
2022-09-13T22:16:09.226Z,1.67
2022-09-13T22:18:38.753Z,2.42
2022-09-13T22:21:08.311Z,3.83
2022-09-13T22:23:44.212Z,2.10
2022-09-13T22:26:13.593Z,1.20
2022-09-13T22:28:45.580Z,13.40
2022-09-13T22:31:15.386Z,2.38
2022-09-13T22:33:43.777Z,1.42
2022-09-13T22:36:12.371Z,1.75
2022-09-13T22:38:40.656Z,1.55
2022-09-13T22:41:12.931Z,1.10
2022-09-13T22:43:42.249Z,2.70
2022-09-13T22:46:19.648Z,3.17
2022-09-13T22:48:47.066Z,2.53
2022-09-13T22:51:15.373Z,2.35
2022-09-13T22:53:43.731Z,1.88
2022-09-13T22:56:13.214Z,1.30
2022-09-13T22:58:41.518Z,1.80
2022-09-13T23:01:15.314Z,1.58
2022-09-13T23:03:44.473Z,1.35
2022-09-13T23:06:13.235Z,1.83
2022-09-13T23:08:45.185Z,1.52
2022-09-13T23:11:18.417Z,2.00
2022-09-13T23:13:46.908Z,2.50
2022-09-13T23:16:25.066Z,1.90
2022-09-13T23:18:53.114Z,1.50
2022-09-13T23:21:22.157Z,1.15
2022-09-13T23:23:49.937Z,1.80
2022-09-13T23:26:18.925Z,1.60
2022-09-13T23:28:47.189Z,1.77
2022-09-13T23:31:18.664Z,1.63
2022-09-13T23:33:51.155Z,2.85
2022-09-13T23:36:19.608Z,3.28
2022-09-13T23:38:47.741Z,1.52
2022-09-13T23:41:16.602Z,1.90
2022-09-13T23:43:47.558Z,1.35
2022-09-13T23:46:16.031Z,1.80
2022-09-13T23:48:44.872Z,1.23
2022-09-13T23:51:13.825Z,1.50
2022-09-13T23:53:43.276Z,1.88
2022-09-13T23:56:11.489Z,2.50
2022-09-13T23:58:40.381Z,2.53
